^^
Meteo Knjazevac Station Historical Data
Daily Summary for August 17, 2022 Units:  Metric    English   Both
Daily Weekly Monthly Yearly Custom
  High: Low: Average:
Temperature: 28.4 °C 15.6 °C 18.8 °C
Dew Point: 20.7 °C 15.3 °C 16.9 °C
Humidity: 99% 63% 90%
Wind Speed: 14.3km/h 0.8km/h 5.3km/h
Wind Gust: 17.7km/h - -
Wind- - SSW
Pressure: 1015.5 hPa 1014.4 hPa -
Precipitation: 0 mm    
Historical Graphs
 
 
Tabular Data for August 17, 2022
Time Temperature Dew Point Pressure Wind Wind Speed Wind Gust Humidity Rainfall Rate (Hourly) solar Conditions
00:04 18 °C 17 °C 1014.8 hPa NNW 3.9 km/h 2.9 km/h 94% 0 mm 0 W/m2
00:09 17.9 °C 16.9 °C 1014.8 hPa NNW 4.2 km/h 4.8 km/h 94% 0 mm 0 W/m2
00:14 17.9 °C 16.9 °C 1014.8 hPa NW 1.9 km/h 6.4 km/h 94% 0 mm 0 W/m2
00:19 17.8 °C 16.8 °C 1014.8 hPa NW 2.4 km/h 3.2 km/h 94% 0 mm 0 W/m2
00:24 17.7 °C 16.8 °C 1014.8 hPa West 4 km/h 3.2 km/h 94.1% 0 mm 0 W/m2
00:29 17.7 °C 16.7 °C 1014.8 hPa West 4.3 km/h 4.8 km/h 94% 0 mm 0 W/m2
00:33 17.6 °C 16.6 °C 1014.8 hPa West 2.9 km/h 4.8 km/h 94% 0 mm 0 W/m2
00:39 17.4 °C 16.5 °C 1014.8 hPa West 2.9 km/h 3.2 km/h 94.3% 0 mm 0 W/m2
00:43 17.4 °C 16.5 °C 1014.8 hPa WSW 1.8 km/h 3.2 km/h 94.3% 0 mm 0 W/m2
00:49 17.3 °C 16.5 °C 1014.8 hPa West 3.5 km/h 4.8 km/h 95% 0 mm 0 W/m2
00:54 17.3 °C 16.5 °C 1014.8 hPa WNW 3.4 km/h 3.2 km/h 95% 0 mm 0 W/m2
00:59 17.3 °C 16.6 °C 1014.8 hPa NW 3.1 km/h 3.2 km/h 95% 0 mm 0 W/m2
01:04 17.3 °C 16.5 °C 1014.8 hPa NNW 5.1 km/h 2.1 km/h 95% 0 mm 0 W/m2
01:08 17.3 °C 16.5 °C 1014.8 hPa NW 3.4 km/h 4.8 km/h 95% 0 mm 0 W/m2
01:14 17.2 °C 16.4 °C 1014.8 hPa NW 2.9 km/h 3.2 km/h 95% 0 mm 0 W/m2
01:19 17.2 °C 16.4 °C 1014.8 hPa WNW 2.3 km/h 3.2 km/h 95% 0 mm 0 W/m2
01:24 17.2 °C 16.4 °C 1014.8 hPa WSW 1.8 km/h 4.8 km/h 95% 0 mm 0 W/m2
01:29 17.2 °C 16.4 °C 1014.8 hPa ESE 1.3 km/h 4.8 km/h 95.7% 0 mm 0 W/m2
01:34 17.1 °C 16.4 °C 1014.8 hPa NE 3.2 km/h 1.8 km/h 95.6% 0 mm 0 W/m2
01:39 17.1 °C 16.3 °C 1014.8 hPa NNE 2.3 km/h 3.2 km/h 95.1% 0 mm 0 W/m2
01:43 17.1 °C 16.3 °C 1014.8 hPa North 2.4 km/h 1.4 km/h 95.3% 0 mm 0 W/m2
01:49 17.2 °C 16.5 °C 1014.8 hPa NE 6.4 km/h 7.9 km/h 96% 0 mm 0 W/m2
01:54 17.3 °C 16.6 °C 1014.8 hPa SE 7.9 km/h 12.9 km/h 95.2% 0 mm 0 W/m2
01:59 17.4 °C 16.6 °C 1014.8 hPa SSE 6.1 km/h 4 km/h 94.6% 0 mm 0 W/m2
02:04 17.6 °C 16.6 °C 1014.8 hPa ESE 9.2 km/h 5.8 km/h 94% 0 mm 0 W/m2
02:09 17.6 °C 16.6 °C 1014.8 hPa SE 5 km/h 9.7 km/h 94% 0 mm 0 W/m2
02:14 17.6 °C 16.6 °C 1014.8 hPa South 3.4 km/h 8 km/h 93.9% 0 mm 0 W/m2
02:19 17.5 °C 16.5 °C 1014.8 hPa WNW 4.5 km/h 4.8 km/h 94% 0 mm 0 W/m2
02:24 17.6 °C 16.5 °C 1014.8 hPa NW 5.8 km/h 5 km/h 93.8% 0 mm 0 W/m2
02:29 17.6 °C 16.4 °C 1014.8 hPa South 7.2 km/h 5 km/h 93% 0 mm 0 W/m2
02:34 17.6 °C 16.4 °C 1014.8 hPa SSE 2.7 km/h 9.7 km/h 93% 0 mm 0 W/m2
02:39 17.6 °C 16.4 °C 1014.8 hPa ESE 3.9 km/h 3.2 km/h 93% 0 mm 0 W/m2
02:43 17.5 °C 16.3 °C 1014.4 hPa WNW 5.1 km/h 6.4 km/h 93% 0 mm 0 W/m2
02:49 17.5 °C 16.3 °C 1014.8 hPa WSW 3.5 km/h 6.4 km/h 93% 0 mm 0 W/m2
02:53 17.4 °C 16.4 °C 1014.4 hPa WNW 2.3 km/h 3.2 km/h 93.3% 0 mm 0 W/m2
02:59 17.3 °C 16.3 °C 1014.8 hPa North 1.4 km/h 3.2 km/h 93.7% 0 mm 0 W/m2
03:04 17.2 °C 16.3 °C 1014.8 hPa NNW 3.5 km/h 3.2 km/h 94% 0 mm 0 W/m2
03:09 17.2 °C 16.2 °C 1014.8 hPa NW 2.1 km/h 4.8 km/h 94% 0 mm 0 W/m2
03:14 17.1 °C 16.1 °C 1014.8 hPa SW 5 km/h 4.7 km/h 94% 0 mm 0 W/m2
03:19 17.2 °C 16.2 °C 1014.8 hPa SSE 5.1 km/h 8 km/h 94.1% 0 mm 0 W/m2
03:24 17.2 °C 16.2 °C 1014.8 hPa SE 5.6 km/h 8 km/h 94% 0 mm 0 W/m2
03:29 17.1 °C 16.1 °C 1014.8 hPa ESE 2.1 km/h 6.4 km/h 94% 0 mm 0 W/m2
03:34 17 °C 16.1 °C 1014.8 hPa North 2.3 km/h 4.8 km/h 94.4% 0 mm 0 W/m2
03:38 16.9 °C 16 °C 1014.8 hPa North 2.1 km/h 3.2 km/h 94.1% 0 mm 0 W/m2
03:44 16.7 °C 15.9 °C 1014.8 hPa NNW 2.3 km/h 3.2 km/h 95% 0 mm 0 W/m2
03:48 16.6 °C 15.8 °C 1014.8 hPa WNW 3.2 km/h 3.2 km/h 95% 0 mm 0 W/m2
03:53 16.3 °C 15.6 °C 1014.8 hPa WSW 5.1 km/h 4 km/h 95% 0 mm 0 W/m2
03:59 16.2 °C 15.6 °C 1014.8 hPa West 3.9 km/h 4.8 km/h 95.9% 0 mm 0 W/m2
04:04 16.2 °C 15.4 °C 1014.8 hPa West 6.3 km/h 5.8 km/h 96% 0 mm 0 W/m2
04:09 16.1 °C 15.6 °C 1014.8 hPa West 5.1 km/h 8 km/h 97.3% 0 mm 0 W/m2
04:14 16 °C 15.7 °C 1014.8 hPa WNW 4 km/h 4.8 km/h 98% 0 mm 0 W/m2
04:19 16.1 °C 15.8 °C 1014.8 hPa NW 2.6 km/h 1.4 km/h 98% 0 mm 0 W/m2
04:24 16.1 °C 15.8 °C 1014.8 hPa NNW 2.4 km/h 3.2 km/h 98% 0 mm 0 W/m2
04:29 16.1 °C 15.8 °C 1014.8 hPa NNW 2.9 km/h 4.8 km/h 98% 0 mm 0 W/m2
04:34 16.1 °C 15.7 °C 1014.8 hPa NW 3.5 km/h 3.2 km/h 98% 0 mm 0 W/m2
04:39 16.1 °C 15.7 °C 1014.8 hPa NW 3.2 km/h 1.8 km/h 98% 0 mm 0 W/m2
04:44 16 °C 15.7 °C 1014.8 hPa WNW 3.7 km/h 3.2 km/h 98% 0 mm 0 W/m2
04:49 15.9 °C 15.6 °C 1014.8 hPa WSW 1.9 km/h 4.8 km/h 98% 0 mm 0 W/m2
04:54 15.8 °C 15.5 °C 1014.8 hPa NW 1.9 km/h 4 km/h 98% 0 mm 0 W/m2
04:59 15.8 °C 15.5 °C 1014.8 hPa NW 2.7 km/h 1.8 km/h 98.2% 0 mm 0 W/m2
05:04 15.7 °C 15.4 °C 1014.8 hPa WSW 3.7 km/h 3.2 km/h 98% 0 mm 0 W/m2
05:09 15.6 °C 15.3 °C 1014.8 hPa WNW 3.7 km/h 4.8 km/h 98.2% 0 mm 0 W/m2
05:14 15.7 °C 15.6 °C 1014.8 hPa NNW 2.6 km/h 4.8 km/h 99% 0 mm 0 W/m2
05:19 15.7 °C 15.6 °C 1014.8 hPa NNW 2.7 km/h 1.8 km/h 99% 0 mm 0 W/m2
05:24 15.7 °C 15.4 °C 1014.8 hPa West 2.9 km/h 3.2 km/h 98.5% 0 mm 0 W/m2
05:29 15.6 °C 15.4 °C 1014.8 hPa WNW 3.5 km/h 2.1 km/h 98.7% 0 mm 1 W/m2
05:34 15.6 °C 15.4 °C 1014.8 hPa NW 6.9 km/h 6.4 km/h 99% 0 mm 2 W/m2
05:39 15.8 °C 15.6 °C 1014.8 hPa South 5.3 km/h 9.7 km/h 99% 0 mm 4 W/m2
05:44 15.9 °C 15.7 °C 1014.8 hPa SSE 4.2 km/h 4.8 km/h 98.6% 0 mm 7 W/m2
05:49 15.9 °C 15.6 °C 1015.1 hPa ESE 3.5 km/h 3.2 km/h 98% 0 mm 10 W/m2
05:54 15.8 °C 15.5 °C 1015.1 hPa WSW 4.5 km/h 4.8 km/h 98% 0 mm 14 W/m2
05:59 15.8 °C 15.6 °C 1015.1 hPa West 6.6 km/h 6.4 km/h 98.7% 0 mm 19 W/m2
06:04 16.1 °C 15.9 °C 1015.1 hPa South 8.5 km/h 5.5 km/h 98.5% 0 mm 23 W/m2
06:09 16.6 °C 16 °C 1015.1 hPa SE 5.6 km/h 9.7 km/h 96.8% 0 mm 28 W/m2
06:13 16.7 °C 16.1 °C 1015.1 hPa ESE 5.3 km/h 4.8 km/h 96% 0 mm 37 W/m2
06:19 16.7 °C 15.9 °C 1015.1 hPa ESE 4.5 km/h 6.4 km/h 95.1% 0 mm 47 W/m2
06:24 16.5 °C 15.7 °C 1015.1 hPa South 3.2 km/h 4.8 km/h 95% 0 mm 55 W/m2
06:29 16.3 °C 15.6 °C 1015.1 hPa North 7.4 km/h 5.8 km/h 95.3% 0 mm 67 W/m2
06:34 16.4 °C 15.8 °C 1015.5 hPa SE 5.5 km/h 11.3 km/h 96% 0 mm 76 W/m2
06:38 16.4 °C 15.8 °C 1015.5 hPa SE 5 km/h 6.4 km/h 96% 0 mm 85 W/m2
06:44 16.7 °C 16 °C 1015.5 hPa East 6.1 km/h 6.4 km/h 96% 0 mm 98 W/m2
06:49 16.8 °C 16.1 °C 1015.5 hPa ESE 7.1 km/h 8 km/h 95.4% 0 mm 109 W/m2
06:54 16.9 °C 16.2 °C 1015.5 hPa SE 5.5 km/h 8 km/h 95% 0 mm 123 W/m2
06:59 17 °C 16.2 °C 1015.5 hPa SE 3.5 km/h 6.4 km/h 94.8% 0 mm 137 W/m2
07:04 17.2 °C 16.2 °C 1015.5 hPa SSE 6.3 km/h 5 km/h 94% 0 mm 152 W/m2
07:09 17.4 °C 16.4 °C 1015.5 hPa South 5.5 km/h 8 km/h 93.8% 0 mm 165 W/m2
07:14 17.6 °C 16.5 °C 1015.5 hPa South 3.9 km/h 6.4 km/h 93.3% 0 mm 177 W/m2
07:19 17.7 °C 16.6 °C 1015.5 hPa SSW 0.8 km/h 4.8 km/h 93.5% 0 mm 192 W/m2
07:24 17.7 °C 16.8 °C 1015.5 hPa SSE 2.9 km/h 3.2 km/h 94.6% 0 mm 209 W/m2
07:29 17.7 °C 16.9 °C 1015.5 hPa ENE 4 km/h 4.8 km/h 94.9% 0 mm 224 W/m2
07:34 17.9 °C 16.9 °C 1015.5 hPa East 6 km/h 6.4 km/h 93.4% 0 mm 240 W/m2
07:39 18.3 °C 16.8 °C 1015.5 hPa SE 6.4 km/h 8 km/h 91.4% 0 mm 255 W/m2
07:44 18.6 °C 17.1 °C 1015.5 hPa SE 5.3 km/h 8 km/h 90.9% 0 mm 272 W/m2
07:49 18.8 °C 17.1 °C 1015.5 hPa SE 5.3 km/h 6.4 km/h 90.1% 0 mm 287 W/m2
07:54 19.1 °C 17.3 °C 1015.5 hPa SSE 7.6 km/h 8 km/h 89.5% 0 mm 311 W/m2
07:59 19.5 °C 17.6 °C 1015.5 hPa SE 6.8 km/h 9.7 km/h 88.9% 0 mm 325 W/m2
08:04 19.7 °C 17.7 °C 1015.5 hPa SE 6.3 km/h 8 km/h 88% 0 mm 341 W/m2
08:09 20 °C 17.7 °C 1015.5 hPa SSE 6.1 km/h 8 km/h 87% 0 mm 358 W/m2
08:14 20.4 °C 17.9 °C 1015.5 hPa SSE 8.5 km/h 8 km/h 85.6% 0 mm 376 W/m2
08:19 20.7 °C 18.1 °C 1015.5 hPa SSE 9.7 km/h 7.2 km/h 84.6% 0 mm 389 W/m2
08:24 21.1 °C 18.2 °C 1015.5 hPa SSE 7.2 km/h 11.3 km/h 84% 0 mm 408 W/m2
08:29 21.6 °C 18.4 °C 1015.5 hPa SE 8.9 km/h 5.5 km/h 81.9% 0 mm 425 W/m2
08:34 22.2 °C 18.4 °C 1015.5 hPa SE 10 km/h 11.3 km/h 79.5% 0 mm 441 W/m2
08:39 22.7 °C 18.8 °C 1015.5 hPa ESE 9.7 km/h 11.3 km/h 78.8% 0 mm 458 W/m2
08:44 23.1 °C 19.2 °C 1015.5 hPa ESE 9.2 km/h 11.3 km/h 78.6% 0 mm 472 W/m2
08:49 23.6 °C 19.1 °C 1015.5 hPa ESE 7.1 km/h 11.3 km/h 76.2% 0 mm 487 W/m2
08:54 23.9 °C 19.2 °C 1015.5 hPa SE 6 km/h 8 km/h 75% 0 mm 503 W/m2
08:59 24.4 °C 19.6 °C 1015.5 hPa SSE 5.6 km/h 8 km/h 74.5% 0 mm 518 W/m2
09:04 24.8 °C 19.6 °C 1015.5 hPa SSE 5.8 km/h 8 km/h 72.6% 0 mm 536 W/m2
09:09 25.2 °C 19.9 °C 1015.5 hPa SSE 6.4 km/h 4.7 km/h 72.4% 0 mm 554 W/m2
09:14 25.6 °C 19.7 °C 1015.5 hPa SSW 10.5 km/h 8 km/h 70.1% 0 mm 565 W/m2
09:19 25.8 °C 19.7 °C 1015.5 hPa SW 7.2 km/h 14.5 km/h 68.8% 0 mm 579 W/m2
09:24 26.2 °C 19.8 °C 1015.5 hPa SW 7.6 km/h 8 km/h 68.4% 0 mm 595 W/m2
09:29 26.5 °C 20.1 °C 1015.5 hPa SW 8.9 km/h 9.7 km/h 68% 0 mm 610 W/m2
09:34 26.7 °C 20 °C 1015.5 hPa SW 14.3 km/h 11.9 km/h 67% 0 mm 627 W/m2
09:39 26.7 °C 19.8 °C 1015.5 hPa SW 13.4 km/h 16.1 km/h 65.8% 0 mm 641 W/m2
09:44 26.8 °C 19.9 °C 1015.5 hPa SW 12.4 km/h 14.5 km/h 65.7% 0 mm 649 W/m2
09:49 26.9 °C 19.8 °C 1015.5 hPa SW 12.9 km/h 14.5 km/h 65.2% 0 mm 663 W/m2
09:54 27.1 °C 20.1 °C 1015.5 hPa SW 12.6 km/h 17.7 km/h 65.4% 0 mm 675 W/m2
09:59 27.3 °C 20.2 °C 1015.5 hPa SW 12.6 km/h 12.9 km/h 65% 0 mm 690 W/m2
10:04 27.5 °C 20.4 °C 1015.5 hPa SW 11.1 km/h 12.9 km/h 65.4% 0 mm 704 W/m2
10:09 27.8 °C 20.6 °C 1015.1 hPa WSW 7.6 km/h 11.3 km/h 64.8% 0 mm 715 W/m2
10:14 28 °C 20.4 °C 1015.1 hPa SW 7.2 km/h 9.7 km/h 63.7% 0 mm 728 W/m2
10:19 28.2 °C 20.6 °C 1015.1 hPa SW 9.2 km/h 9.7 km/h 63.3% 0 mm 739 W/m2
10:24 28.4 °C 20.7 °C 1015.1 hPa SW 7.4 km/h 11.3 km/h 63% 0 mm 750 W/m2
Knjazevac, Serbia
Compliments of Weather Underground - 2 mb